TimePDT,TemperatureF,Dew PointF,Humidity,Sea Level PressureIn,VisibilityMPH,Wind Direction,Wind SpeedMPH,Gust SpeedMPH,PrecipitationIn,Events,Conditions,WindDirDegrees,DateUTC
12:53 AM,52.0,46.0,80,30.23,10.0,ENE,5.8,-,N/A,,Clear,70,2012-10-26 07:53:00
1:53 AM,52.0,45.0,77,30.23,10.0,Calm,Calm,-,N/A,,Clear,0,2012-10-26 08:53:00
2:53 AM,53.1,45.0,74,30.23,10.0,Calm,Calm,-,N/A,,Clear,0,2012-10-26 09:53:00
3:53 AM,52.0,45.0,77,30.22,10.0,Calm,Calm,-,N/A,,Clear,0,2012-10-26 10:53:00
4:53 AM,48.0,42.1,80,30.22,10.0,Calm,Calm,-,N/A,,Clear,0,2012-10-26 11:53:00
5:53 AM,48.0,43.0,83,30.22,10.0,Calm,Calm,-,N/A,,Clear,0,2012-10-26 12:53:00
6:53 AM,46.9,42.1,83,30.23,10.0,Calm,Calm,-,N/A,,Clear,0,2012-10-26 13:53:00
8:53 AM,52.0,43.0,71,30.25,10.0,Calm,Calm,-,N/A,,Clear,0,2012-10-26 15:53:00
9:53 AM,59.0,43.0,55,30.25,10.0,Calm,Calm,-,N/A,,Clear,0,2012-10-26 16:53:00
10:53 AM,64.0,39.9,41,30.23,10.0,Calm,Calm,-,N/A,,Clear,0,2012-10-26 17:53:00
11:53 AM,70.0,37.0,30,30.21,10.0,West,6.9,-,N/A,,Clear,260,2012-10-26 18:53:00
12:53 PM,75.0,34.0,22,30.18,10.0,WNW,9.2,-,N/A,,Clear,290,2012-10-26 19:53:00
1:53 PM,77.0,34.0,21,30.14,10.0,NW,11.5,-,N/A,,Clear,310,2012-10-26 20:53:00
2:53 PM,75.0,39.0,27,30.12,10.0,West,13.8,-,N/A,,Clear,280,2012-10-26 21:53:00
3:53 PM,71.1,44.1,38,30.11,10.0,West,13.8,-,N/A,,Clear,260,2012-10-26 22:53:00
4:53 PM,69.1,48.0,47,30.11,10.0,West,10.4,-,N/A,,Clear,280,2012-10-26 23:53:00
5:53 PM,64.9,48.9,56,30.12,10.0,West,6.9,-,N/A,,Clear,270,2012-10-27 00:53:00
6:53 PM,63.0,48.9,60,30.14,10.0,WNW,5.8,-,N/A,,Clear,300,2012-10-27 01:53:00
7:53 PM,62.1,48.0,60,30.13,10.0,Calm,Calm,-,N/A,,Clear,0,2012-10-27 02:53:00
8:53 PM,60.1,48.0,64,30.12,10.0,WNW,4.6,-,N/A,,Clear,290,2012-10-27 03:53:00
9:53 PM,57.0,46.0,67,30.12,10.0,Calm,Calm,-,N/A,,Clear,0,2012-10-27 04:53:00
10:53 PM,54.0,45.0,72,30.12,10.0,Calm,Calm,-,N/A,,Clear,0,2012-10-27 05:53:00
11:53 PM,54.0,45.0,72,30.11,10.0,Calm,Calm,-,N/A,,Clear,0,2012-10-27 06:53:00